createdAt,value
2022-07-25T00:02:04.607Z,8.00
2022-07-25T00:04:35.194Z,7.73
2022-07-25T00:07:03.830Z,9.10
2022-07-25T00:09:31.651Z,8.10
2022-07-25T00:11:59.342Z,7.97
2022-07-25T00:14:27.346Z,8.73
2022-07-25T00:16:56.526Z,9.03
2022-07-25T00:19:24.233Z,8.40
2022-07-25T00:21:51.958Z,8.00
2022-07-25T00:24:19.658Z,8.30
2022-07-25T00:26:47.378Z,8.53
2022-07-25T00:29:15.069Z,9.53
2022-07-25T00:31:42.788Z,8.47
2022-07-25T00:34:11.877Z,8.27
2022-07-25T00:36:39.636Z,8.30
2022-07-25T00:39:07.378Z,9.23
2022-07-25T00:41:35.110Z,8.30
2022-07-25T00:44:03.258Z,8.17
2022-07-25T00:46:31.158Z,7.90
2022-07-25T00:48:59.153Z,8.87
2022-07-25T00:51:28.488Z,8.40
2022-07-25T00:53:58.372Z,8.73
2022-07-25T00:56:26.369Z,8.70
2022-07-25T00:58:54.060Z,7.23
2022-07-25T01:01:21.846Z,7.73
2022-07-25T01:03:49.694Z,7.70
2022-07-25T01:06:17.508Z,7.93
2022-07-25T01:08:47.954Z,7.60
2022-07-25T01:11:15.844Z,8.07
2022-07-25T01:13:43.536Z,7.93
2022-07-25T01:16:11.252Z,7.73
2022-07-25T01:18:39.472Z,8.93
2022-07-25T01:21:08.974Z,7.77
2022-07-25T01:23:36.806Z,9.03
2022-07-25T01:26:04.795Z,8.83
2022-07-25T01:28:32.493Z,8.60
2022-07-25T01:31:00.329Z,8.67
2022-07-25T01:33:28.078Z,7.63
2022-07-25T01:35:55.748Z,7.63
2022-07-25T01:38:24.832Z,8.60
2022-07-25T01:40:52.580Z,11.10
2022-07-25T01:43:20.308Z,7.97
2022-07-25T01:45:48.074Z,8.70
2022-07-25T01:48:15.882Z,7.60
2022-07-25T01:50:44.596Z,8.00
2022-07-25T01:53:12.464Z,7.50
2022-07-25T01:55:41.550Z,8.50
2022-07-25T01:58:09.242Z,8.73
2022-07-25T02:00:37.374Z,8.73
2022-07-25T02:03:22.567Z,7.60
2022-07-25T02:05:50.355Z,8.80
2022-07-25T02:08:18.044Z,8.70
2022-07-25T02:10:47.216Z,10.93
2022-07-25T02:13:14.936Z,9.07
2022-07-25T02:15:42.594Z,9.63
2022-07-25T02:18:10.393Z,8.33
2022-07-25T02:20:38.029Z,8.20
2022-07-25T02:23:06.916Z,7.80
2022-07-25T02:25:35.185Z,8.77
2022-07-25T02:28:04.820Z,8.67
2022-07-25T02:30:32.571Z,8.40
2022-07-25T02:33:00.898Z,8.87
2022-07-25T02:35:28.800Z,7.93
2022-07-25T02:37:56.491Z,9.13
2022-07-25T02:40:24.179Z,7.50
2022-07-25T02:42:51.834Z,8.97
2022-07-25T02:45:21.087Z,8.47
2022-07-25T02:47:48.774Z,9.10
2022-07-25T02:50:16.641Z,8.73
2022-07-25T02:52:44.529Z,8.13
2022-07-25T02:55:12.647Z,8.07
2022-07-25T02:57:40.412Z,7.17
2022-07-25T03:00:09.327Z,10.67
2022-07-25T03:02:38.583Z,7.57
2022-07-25T03:05:08.355Z,8.20
2022-07-25T03:07:36.492Z,8.37
2022-07-25T03:10:10.449Z,8.10
2022-07-25T03:12:40.837Z,11.00
2022-07-25T03:15:10.054Z,8.47
2022-07-25T03:17:39.578Z,9.73
2022-07-25T03:20:08.935Z,9.70
2022-07-25T03:22:36.680Z,8.33
2022-07-25T03:25:05.462Z,8.67
2022-07-25T03:27:43.105Z,11.63
2022-07-25T03:30:12.162Z,8.63
2022-07-25T03:32:41.757Z,10.63
2022-07-25T03:35:10.260Z,9.10
2022-07-25T03:37:38.114Z,11.40
2022-07-25T03:40:06.992Z,9.20
2022-07-25T03:42:35.592Z,8.50
2022-07-25T03:45:03.459Z,9.10
2022-07-25T03:47:31.150Z,8.70
2022-07-25T03:50:00.176Z,8.97
2022-07-25T03:52:27.873Z,9.10
2022-07-25T03:54:55.572Z,8.60
2022-07-25T03:57:23.218Z,8.80
2022-07-25T03:59:50.916Z,9.10
2022-07-25T04:02:18.702Z,10.30
2022-07-25T04:04:46.704Z,7.90
2022-07-25T04:07:15.736Z,9.30
2022-07-25T04:09:43.407Z,11.57
2022-07-25T04:12:11.336Z,8.27
2022-07-25T04:14:39.029Z,9.20
2022-07-25T04:17:06.891Z,9.37
2022-07-25T04:19:34.892Z,8.50
2022-07-25T04:22:02.552Z,9.47
2022-07-25T04:24:31.538Z,8.20
2022-07-25T04:26:59.268Z,8.50
2022-07-25T04:29:26.934Z,8.40
2022-07-25T04:31:54.666Z,9.60
2022-07-25T04:34:22.377Z,10.03
2022-07-25T04:36:50.390Z,8.90
2022-07-25T04:39:18.161Z,12.93
2022-07-25T04:41:47.196Z,8.60
2022-07-25T04:44:14.971Z,7.03
2022-07-25T04:46:42.613Z,8.03
2022-07-25T04:49:10.445Z,9.20
2022-07-25T04:51:38.168Z,8.70
2022-07-25T04:54:06.841Z,8.73
2022-07-25T04:56:34.797Z,7.90
2022-07-25T04:59:06.338Z,7.50
2022-07-25T05:01:35.064Z,7.50
2022-07-25T05:04:03.011Z,8.13
2022-07-25T05:06:31.015Z,8.87
2022-07-25T05:08:58.869Z,8.73
2022-07-25T05:11:26.525Z,7.80
2022-07-25T05:13:54.213Z,7.13
2022-07-25T05:16:23.327Z,9.87
2022-07-25T05:18:51.025Z,7.00
2022-07-25T05:21:18.786Z,8.07
2022-07-25T05:23:46.498Z,7.37
2022-07-25T05:26:14.176Z,7.53
2022-07-25T05:28:41.837Z,7.03
2022-07-25T05:31:09.556Z,8.57
2022-07-25T05:33:38.700Z,7.00
2022-07-25T05:36:08.641Z,9.77
2022-07-25T05:38:36.355Z,7.30
2022-07-25T05:41:04.057Z,7.00
2022-07-25T05:43:31.832Z,7.97
2022-07-25T05:46:02.722Z,7.50
2022-07-25T05:48:30.581Z,6.93
2022-07-25T05:51:00.111Z,8.33
2022-07-25T05:53:27.765Z,7.90
2022-07-25T05:55:55.575Z,6.80
2022-07-25T05:58:29.120Z,7.63
2022-07-25T06:00:57.841Z,6.20
2022-07-25T06:03:25.578Z,6.90
2022-07-25T06:05:53.294Z,7.80
2022-07-25T06:08:22.589Z,7.83
2022-07-25T06:10:50.308Z,8.63
2022-07-25T06:13:18.013Z,7.90
2022-07-25T06:15:48.519Z,7.20
2022-07-25T06:18:16.323Z,7.83
2022-07-25T06:20:44.087Z,8.20
2022-07-25T06:23:12.404Z,7.50
2022-07-25T06:25:41.457Z,7.40
2022-07-25T06:28:10.630Z,7.60
2022-07-25T06:30:38.485Z,7.83
2022-07-25T06:33:06.165Z,8.23
2022-07-25T06:35:33.852Z,7.07
2022-07-25T06:38:01.516Z,7.47
2022-07-25T06:40:29.484Z,6.87
2022-07-25T06:42:58.527Z,6.93
2022-07-25T06:45:26.237Z,6.17
2022-07-25T06:47:53.903Z,7.60
2022-07-25T06:50:21.695Z,6.87
2022-07-25T06:52:49.925Z,6.90
2022-07-25T06:55:17.742Z,6.33
2022-07-25T06:57:45.404Z,7.13
2022-07-25T07:00:15.681Z,6.43
2022-07-25T07:02:55.957Z,7.17
2022-07-25T07:05:24.496Z,6.93
2022-07-25T07:07:52.354Z,8.73
2022-07-25T07:10:21.847Z,6.33
2022-07-25T07:12:49.614Z,6.37
2022-07-25T07:15:19.148Z,7.20
2022-07-25T07:17:46.771Z,7.20
2022-07-25T07:20:14.428Z,7.20
2022-07-25T07:22:46.580Z,7.00
2022-07-25T07:25:16.111Z,6.83
2022-07-25T07:27:44.415Z,7.57
2022-07-25T07:30:14.724Z,7.10
2022-07-25T07:32:44.775Z,9.60
2022-07-25T07:35:16.325Z,7.80
2022-07-25T07:37:44.692Z,6.83
2022-07-25T07:40:17.224Z,6.80
2022-07-25T07:42:47.372Z,6.70
2022-07-25T07:45:16.550Z,7.53
2022-07-25T07:47:48.017Z,8.60
2022-07-25T07:50:17.027Z,7.63
2022-07-25T07:52:45.463Z,7.50
2022-07-25T07:55:31.860Z,8.40
2022-07-25T07:58:00.458Z,7.70
2022-07-25T08:00:30.842Z,7.80
2022-07-25T08:03:00.878Z,10.70
2022-07-25T08:05:30.733Z,7.93
2022-07-25T08:07:59.463Z,7.73
2022-07-25T08:10:29.161Z,7.83
2022-07-25T08:12:57.670Z,7.23
2022-07-25T08:15:25.875Z,7.57
2022-07-25T08:17:53.857Z,11.50
2022-07-25T08:20:39.509Z,7.20
2022-07-25T08:23:07.850Z,6.77
2022-07-25T08:25:36.314Z,7.00
2022-07-25T08:28:06.261Z,7.53
2022-07-25T08:30:34.575Z,7.90
2022-07-25T08:33:03.826Z,11.07
2022-07-25T08:35:34.611Z,6.87
2022-07-25T08:38:02.985Z,7.30
2022-07-25T08:40:32.044Z,7.43
2022-07-25T08:43:00.562Z,7.10
2022-07-25T08:45:29.672Z,8.20
2022-07-25T08:47:58.128Z,7.40
2022-07-25T08:50:27.292Z,7.77
2022-07-25T08:53:16.595Z,11.07
2022-07-25T08:55:45.632Z,10.97
2022-07-25T08:58:14.172Z,9.20
2022-07-25T09:00:42.480Z,7.27
2022-07-25T09:03:10.900Z,8.83
2022-07-25T09:05:39.606Z,7.97
2022-07-25T09:08:10.893Z,8.30
2022-07-25T09:10:40.662Z,8.20
2022-07-25T09:13:14.061Z,8.73
2022-07-25T09:15:45.588Z,8.13
2022-07-25T09:18:17.143Z,7.20
2022-07-25T09:20:47.114Z,7.57
2022-07-25T09:23:29.445Z,7.37
2022-07-25T09:26:03.253Z,7.17
2022-07-25T09:28:31.019Z,8.90
2022-07-25T09:31:00.417Z,7.93
2022-07-25T09:33:29.973Z,8.53
2022-07-25T09:35:57.842Z,8.80
2022-07-25T09:38:26.859Z,7.90
2022-07-25T09:40:56.644Z,7.27
2022-07-25T09:43:24.952Z,7.43
2022-07-25T09:45:53.637Z,7.47
2022-07-25T09:48:21.685Z,7.83
2022-07-25T09:50:49.582Z,7.67
2022-07-25T09:53:17.997Z,8.20
2022-07-25T09:55:47.148Z,7.63
2022-07-25T09:58:14.840Z,7.73
2022-07-25T10:00:43.632Z,7.73
2022-07-25T10:03:21.348Z,9.47
2022-07-25T10:06:06.446Z,6.70
2022-07-25T10:08:37.007Z,7.17
2022-07-25T10:11:09.072Z,10.03
2022-07-25T10:13:39.088Z,8.73
2022-07-25T10:16:17.362Z,9.47
2022-07-25T10:18:53.028Z,8.50
2022-07-25T10:21:26.702Z,8.27
2022-07-25T10:24:03.164Z,8.20
2022-07-25T10:26:33.427Z,8.27
2022-07-25T10:29:02.499Z,8.27
2022-07-25T10:31:37.550Z,7.33
2022-07-25T10:34:07.826Z,11.43
2022-07-25T10:36:44.718Z,7.53
2022-07-25T10:39:14.483Z,6.53
2022-07-25T10:41:45.427Z,10.87
2022-07-25T10:44:15.057Z,8.43
2022-07-25T10:46:44.932Z,8.40
2022-07-25T10:49:19.378Z,8.73
2022-07-25T10:51:56.343Z,8.80
2022-07-25T10:54:24.351Z,7.63
2022-07-25T10:56:55.838Z,8.30
2022-07-25T10:59:28.941Z,8.40
2022-07-25T11:01:56.817Z,8.30
2022-07-25T11:04:25.226Z,9.30
2022-07-25T11:06:53.000Z,11.03
2022-07-25T11:09:27.252Z,8.93
2022-07-25T11:11:58.388Z,11.23
2022-07-25T11:14:31.107Z,9.40
2022-07-25T11:16:59.511Z,9.23
2022-07-25T11:19:30.035Z,8.83
2022-07-25T11:21:59.207Z,7.83
2022-07-25T11:24:36.923Z,7.67
2022-07-25T11:27:11.270Z,8.57
2022-07-25T11:29:40.721Z,7.73
2022-07-25T11:32:10.710Z,8.43
2022-07-25T11:34:41.624Z,8.20
2022-07-25T11:37:11.261Z,5.93
2022-07-25T11:39:41.700Z,6.63
2022-07-25T11:42:12.441Z,6.80
2022-07-25T11:44:47.242Z,9.70
2022-07-25T11:47:25.824Z,6.00
2022-07-25T11:49:55.169Z,4.63
2022-07-25T11:52:25.053Z,5.93
2022-07-25T11:54:54.628Z,5.80
2022-07-25T11:57:25.764Z,5.83
2022-07-25T11:59:54.155Z,5.13
2022-07-25T12:02:26.226Z,5.03
2022-07-25T12:04:55.307Z,6.00
2022-07-25T12:07:23.156Z,6.40
2022-07-25T12:09:57.808Z,5.40
2022-07-25T12:12:26.793Z,4.93
2022-07-25T12:14:54.460Z,5.70
2022-07-25T12:17:22.243Z,5.10
2022-07-25T12:19:49.910Z,6.17
2022-07-25T12:22:17.552Z,7.60
2022-07-25T12:24:45.188Z,6.10
2022-07-25T12:27:12.826Z,4.40
2022-07-25T12:29:41.875Z,4.53
2022-07-25T12:32:09.558Z,5.70
2022-07-25T12:34:37.255Z,6.97
2022-07-25T12:37:05.012Z,6.07
2022-07-25T12:39:33.545Z,4.87
2022-07-25T12:42:01.216Z,4.30
2022-07-25T12:44:28.911Z,4.30
2022-07-25T12:46:57.999Z,5.60
2022-07-25T12:49:25.849Z,8.03
2022-07-25T12:51:57.785Z,6.00
2022-07-25T12:54:25.920Z,11.10
2022-07-25T12:56:53.603Z,4.90
2022-07-25T12:59:21.555Z,5.53
2022-07-25T13:01:49.462Z,4.87
2022-07-25T13:04:18.614Z,5.07
2022-07-25T13:06:46.366Z,4.90
2022-07-25T13:09:14.044Z,4.53
2022-07-25T13:11:42.363Z,4.30
2022-07-25T13:14:10.129Z,4.90
2022-07-25T13:16:38.342Z,4.50
2022-07-25T13:19:06.816Z,7.30
2022-07-25T13:21:36.273Z,5.47
2022-07-25T13:24:04.301Z,8.33
2022-07-25T13:26:32.818Z,5.17
2022-07-25T13:29:01.499Z,5.10
2022-07-25T13:31:29.470Z,4.30
2022-07-25T13:33:57.380Z,5.13
2022-07-25T13:36:25.188Z,6.60
2022-07-25T13:38:54.223Z,4.70
2022-07-25T13:41:21.932Z,7.30
2022-07-25T13:43:49.633Z,4.87
2022-07-25T13:46:17.433Z,6.30
2022-07-25T13:48:45.157Z,5.10
2022-07-25T13:51:13.512Z,7.90
2022-07-25T13:53:41.372Z,8.87
2022-07-25T13:56:10.420Z,6.33
2022-07-25T13:58:38.105Z,6.97
2022-07-25T14:01:07.233Z,8.47
2022-07-25T14:03:36.264Z,4.30
2022-07-25T14:06:04.093Z,6.60
2022-07-25T14:08:32.413Z,4.27
2022-07-25T14:11:00.060Z,4.93
2022-07-25T14:13:29.064Z,4.47
2022-07-25T14:15:56.774Z,5.43
2022-07-25T14:18:24.482Z,4.87
2022-07-25T14:20:52.251Z,3.57
2022-07-25T14:23:19.990Z,4.40
2022-07-25T14:25:47.650Z,3.20
2022-07-25T14:28:15.382Z,3.93
2022-07-25T14:30:44.790Z,8.97
2022-07-25T14:33:12.499Z,7.30
2022-07-25T14:35:40.197Z,6.17
2022-07-25T14:38:08.330Z,5.70
2022-07-25T14:40:36.991Z,4.53
2022-07-25T14:43:04.895Z,7.03
2022-07-25T14:45:32.725Z,6.37
2022-07-25T14:48:01.879Z,9.20
2022-07-25T14:50:29.551Z,6.53
2022-07-25T14:52:57.263Z,3.33
2022-07-25T14:55:25.766Z,4.00
2022-07-25T14:57:53.601Z,4.27
2022-07-25T15:00:23.770Z,4.33
2022-07-25T15:02:55.413Z,7.63
2022-07-25T15:05:24.510Z,5.90
2022-07-25T15:07:52.499Z,4.63
2022-07-25T15:10:20.176Z,3.87
2022-07-25T15:12:51.487Z,4.17
2022-07-25T15:15:25.732Z,7.67
2022-07-25T15:17:53.561Z,6.57
2022-07-25T15:20:21.401Z,6.53
2022-07-25T15:22:50.497Z,5.13
2022-07-25T15:28:06.550Z,8.70
2022-07-25T15:30:34.223Z,4.83
2022-07-25T15:33:02.333Z,5.07
2022-07-25T15:35:32.901Z,5.17
2022-07-25T15:38:01.971Z,3.97
2022-07-25T15:40:29.653Z,4.00
2022-07-25T15:42:57.329Z,6.57
2022-07-25T15:45:33.582Z,8.37
2022-07-25T15:48:02.971Z,18.97
2022-07-25T15:50:30.661Z,7.47
2022-07-25T15:52:58.371Z,5.40
2022-07-25T15:55:27.414Z,3.80
2022-07-25T15:57:56.139Z,8.77
2022-07-25T16:00:29.266Z,4.93
2022-07-25T16:02:57.439Z,7.43
2022-07-25T16:05:25.408Z,7.80
2022-07-25T16:07:53.262Z,12.20
2022-07-25T16:10:21.133Z,12.93
2022-07-25T16:12:50.335Z,9.70
2022-07-25T16:15:18.070Z,5.20
2022-07-25T16:17:45.949Z,5.47
2022-07-25T16:20:14.642Z,5.63
2022-07-25T16:22:42.409Z,3.97
2022-07-25T16:25:10.481Z,10.23
2022-07-25T16:27:38.170Z,4.40
2022-07-25T16:30:08.712Z,3.23
2022-07-25T16:32:36.397Z,6.33
2022-07-25T16:35:04.410Z,6.00
2022-07-25T16:37:32.672Z,11.20
2022-07-25T16:40:00.361Z,5.30
2022-07-25T16:42:28.279Z,5.67
2022-07-25T16:44:56.033Z,5.33
2022-07-25T16:47:25.142Z,3.90
2022-07-25T16:49:52.809Z,4.03
2022-07-25T16:52:20.497Z,10.50
2022-07-25T16:54:48.207Z,5.27
2022-07-25T16:57:15.939Z,6.70
2022-07-25T16:59:43.915Z,8.60
2022-07-25T17:02:11.754Z,4.00
2022-07-25T17:04:40.979Z,5.47
2022-07-25T17:07:08.857Z,7.10
2022-07-25T17:09:36.509Z,5.10
2022-07-25T17:12:04.603Z,7.43
2022-07-25T17:14:32.414Z,4.67
2022-07-25T17:17:00.176Z,5.13
2022-07-25T17:19:27.857Z,5.40
2022-07-25T17:21:56.875Z,5.00
2022-07-25T17:24:24.527Z,6.07
2022-07-25T17:26:52.224Z,4.80
2022-07-25T17:29:20.188Z,4.90
2022-07-25T17:31:47.980Z,4.87
2022-07-25T17:34:15.710Z,5.00
2022-07-25T17:36:43.976Z,5.20
2022-07-25T17:39:12.993Z,6.43
2022-07-25T17:41:40.829Z,6.27
2022-07-25T17:44:11.970Z,7.40
2022-07-25T17:46:40.255Z,6.77
2022-07-25T17:49:08.023Z,2.90
2022-07-25T17:51:35.776Z,4.67
2022-07-25T17:54:03.514Z,5.60
2022-07-25T17:56:32.613Z,5.93
2022-07-25T17:59:00.332Z,9.87
2022-07-25T18:01:28.028Z,4.37
2022-07-25T18:03:55.869Z,5.97
2022-07-25T18:06:27.767Z,5.33
2022-07-25T18:08:57.766Z,5.27
2022-07-25T18:11:25.491Z,4.17
2022-07-25T18:13:54.841Z,5.07
2022-07-25T18:16:22.591Z,3.73
2022-07-25T18:18:50.357Z,5.30
2022-07-25T18:21:18.076Z,8.10
2022-07-25T18:23:45.766Z,4.23
2022-07-25T18:26:13.477Z,4.03
2022-07-25T18:28:41.371Z,6.10
2022-07-25T18:31:10.951Z,4.17
2022-07-25T18:33:38.679Z,4.77
2022-07-25T18:36:07.704Z,4.57
2022-07-25T18:38:36.988Z,4.27
2022-07-25T18:41:27.999Z,5.27
2022-07-25T18:43:53.952Z,9.43
2022-07-25T18:46:23.697Z,4.70
2022-07-25T18:48:51.665Z,7.07
2022-07-25T18:51:19.430Z,4.80
2022-07-25T18:53:48.518Z,9.03
2022-07-25T18:56:17.475Z,6.00
2022-07-25T18:58:45.230Z,3.43
2022-07-25T19:01:13.121Z,2.80
2022-07-25T19:03:42.218Z,5.40
2022-07-25T19:06:10.776Z,4.90
2022-07-25T19:08:38.849Z,4.03
2022-07-25T19:11:06.963Z,3.37
2022-07-25T19:13:53.377Z,3.47
2022-07-25T19:16:21.358Z,5.30
2022-07-25T19:18:50.474Z,2.77
2022-07-25T19:21:18.202Z,4.70
2022-07-25T19:23:50.915Z,2.00
2022-07-25T19:26:20.960Z,4.70
2022-07-25T19:28:48.636Z,3.97
2022-07-25T19:31:16.418Z,4.47
2022-07-25T19:33:45.646Z,4.63
2022-07-25T19:36:14.865Z,4.80
2022-07-25T19:38:42.702Z,4.60
2022-07-25T19:41:10.445Z,2.77
2022-07-25T19:43:38.131Z,3.60
2022-07-25T19:46:05.903Z,3.10
2022-07-25T19:48:33.658Z,3.57
2022-07-25T19:51:01.513Z,3.23
2022-07-25T19:53:31.931Z,3.30
2022-07-25T19:56:00.029Z,4.47
2022-07-25T19:58:27.728Z,3.53
2022-07-25T20:00:55.432Z,4.43
2022-07-25T20:03:23.776Z,2.20
2022-07-25T20:05:51.998Z,2.37
2022-07-25T20:08:19.921Z,1.83
2022-07-25T20:10:49.277Z,3.93
2022-07-25T20:13:17.023Z,3.90
2022-07-25T20:15:44.880Z,4.50
2022-07-25T20:18:17.475Z,4.53
2022-07-25T20:20:47.839Z,5.73
2022-07-25T20:23:15.575Z,4.77
2022-07-25T20:25:43.324Z,7.53
2022-07-25T20:28:12.376Z,2.00
2022-07-25T20:30:40.187Z,3.20
2022-07-25T20:33:09.642Z,2.90
2022-07-25T20:35:38.084Z,2.50
2022-07-25T20:38:09.441Z,4.20
2022-07-25T20:40:38.847Z,2.93
2022-07-25T20:43:09.156Z,1.97
2022-07-25T20:45:38.329Z,3.00
2022-07-25T20:48:06.705Z,3.57
2022-07-25T20:50:37.141Z,1.50
2022-07-25T20:53:04.840Z,3.93
2022-07-25T20:55:33.060Z,4.50
2022-07-25T20:58:01.501Z,4.07
2022-07-25T21:00:30.500Z,3.73
2022-07-25T21:03:00.478Z,3.10
2022-07-25T21:05:28.919Z,3.00
2022-07-25T21:07:57.370Z,1.30
2022-07-25T21:10:25.556Z,7.83
2022-07-25T21:12:55.798Z,5.00
2022-07-25T21:15:24.464Z,7.13
2022-07-25T21:17:52.629Z,2.97
2022-07-25T21:20:21.664Z,11.20
2022-07-25T21:22:49.631Z,2.60
2022-07-25T21:25:17.454Z,6.57
2022-07-25T21:27:45.163Z,3.03
2022-07-25T21:30:13.431Z,6.40
2022-07-25T21:32:41.161Z,5.77
2022-07-25T21:35:09.611Z,5.60
2022-07-25T21:37:38.700Z,2.27
2022-07-25T21:40:07.614Z,4.27
2022-07-25T21:42:36.545Z,1.87
2022-07-25T21:45:04.964Z,2.13
2022-07-25T21:47:32.678Z,2.60
2022-07-25T21:50:19.236Z,1.00
2022-07-25T21:52:53.885Z,5.63
2022-07-25T21:55:22.338Z,2.30
2022-07-25T21:57:51.227Z,4.60
2022-07-25T22:00:20.184Z,2.77
2022-07-25T22:02:48.285Z,2.53
2022-07-25T22:05:17.047Z,4.30
2022-07-25T22:07:47.514Z,4.40
2022-07-25T22:10:18.472Z,3.57
2022-07-25T22:12:46.378Z,3.10
2022-07-25T22:15:16.447Z,4.87
2022-07-25T22:17:49.037Z,4.30
2022-07-25T22:20:18.486Z,2.23
2022-07-25T22:22:46.686Z,3.57
2022-07-25T22:25:15.780Z,2.33
2022-07-25T22:27:43.504Z,6.43
2022-07-25T22:30:17.961Z,3.10
2022-07-25T22:32:47.118Z,2.60
2022-07-25T22:35:14.848Z,4.00
2022-07-25T22:37:42.595Z,6.80
2022-07-25T22:40:11.217Z,3.70
2022-07-25T22:42:40.388Z,2.67
2022-07-25T22:45:09.101Z,4.20
2022-07-25T22:47:36.857Z,3.43
2022-07-25T22:50:05.436Z,4.73
2022-07-25T22:52:34.856Z,4.93
2022-07-25T22:55:02.623Z,6.23
2022-07-25T22:57:30.325Z,2.30
2022-07-25T23:00:09.696Z,2.90
2022-07-25T23:02:37.599Z,5.00
2022-07-25T23:05:07.824Z,7.30
2022-07-25T23:07:35.887Z,4.73
2022-07-25T23:10:04.010Z,2.20
2022-07-25T23:12:31.728Z,3.83
2022-07-25T23:14:59.389Z,2.40
2022-07-25T23:17:28.337Z,3.70
2022-07-25T23:19:57.063Z,1.40
2022-07-25T23:22:27.557Z,4.60
2022-07-25T23:24:55.907Z,1.30
2022-07-25T23:27:24.174Z,2.67
2022-07-25T23:29:52.195Z,4.40
2022-07-25T23:32:20.205Z,5.50
2022-07-25T23:34:49.278Z,4.43
2022-07-25T23:37:16.963Z,3.97
2022-07-25T23:39:44.581Z,3.97
2022-07-25T23:42:12.213Z,2.47
2022-07-25T23:44:39.817Z,2.13
2022-07-25T23:47:07.529Z,6.93
2022-07-25T23:49:37.953Z,6.20
2022-07-25T23:52:07.183Z,2.93
2022-07-25T23:54:35.634Z,3.20
2022-07-25T23:57:03.404Z,3.03
2022-07-25T23:59:31.077Z,1.80
